sensor_id;sensor_type;location;lat;lon;timestamp;temperature;humidity
8643;DHT22;4359;49.358;11.256;2024-03-29T00:01:47;1.80;99.90
8643;DHT22;4359;49.358;11.256;2024-03-29T00:04:13;1.90;99.90
8643;DHT22;4359;49.358;11.256;2024-03-29T00:06:39;2.00;99.90
8643;DHT22;4359;49.358;11.256;2024-03-29T00:09:04;2.00;99.90
8643;DHT22;4359;49.358;11.256;2024-03-29T00:11:30;2.10;99.90
8643;DHT22;4359;49.358;11.256;2024-03-29T00:13:56;2.20;99.90
8643;DHT22;4359;49.358;11.256;2024-03-29T00:16:22;2.20;99.90
8643;DHT22;4359;49.358;11.256;2024-03-29T00:18:51;2.20;99.90
8643;DHT22;4359;49.358;11.256;2024-03-29T00:21:17;2.20;99.90
8643;DHT22;4359;49.358;11.256;2024-03-29T00:23:43;2.30;99.90
8643;DHT22;4359;49.358;11.256;2024-03-29T00:26:10;2.30;99.90
8643;DHT22;4359;49.358;11.256;2024-03-29T00:28:36;2.50;99.90
8643;DHT22;4359;49.358;11.256;2024-03-29T00:31:02;2.40;99.90
8643;DHT22;4359;49.358;11.256;2024-03-29T00:33:28;2.50;99.90
8643;DHT22;4359;49.358;11.256;2024-03-29T00:35:53;2.50;99.90
8643;DHT22;4359;49.358;11.256;2024-03-29T00:38:19;2.60;99.90
8643;DHT22;4359;49.358;11.256;2024-03-29T00:40:44;2.60;99.90
8643;DHT22;4359;49.358;11.256;2024-03-29T00:43:10;2.60;99.90
8643;DHT22;4359;49.358;11.256;2024-03-29T00:45:36;2.50;99.90
8643;DHT22;4359;49.358;11.256;2024-03-29T00:48:01;2.50;99.90
8643;DHT22;4359;49.358;11.256;2024-03-29T00:50:27;2.50;99.90
8643;DHT22;4359;49.358;11.256;2024-03-29T00:52:52;2.60;99.90
8643;DHT22;4359;49.358;11.256;2024-03-29T00:55:18;2.60;99.90
8643;DHT22;4359;49.358;11.256;2024-03-29T00:57:43;2.60;99.90
8643;DHT22;4359;49.358;11.256;2024-03-29T01:00:09;2.70;99.90
8643;DHT22;4359;49.358;11.256;2024-03-29T01:02:35;2.60;99.90
8643;DHT22;4359;49.358;11.256;2024-03-29T01:05:01;2.70;99.90
8643;DHT22;4359;49.358;11.256;2024-03-29T01:07:27;2.70;99.90
8643;DHT22;4359;49.358;11.256;2024-03-29T01:09:52;2.70;99.90
8643;DHT22;4359;49.358;11.256;2024-03-29T01:12:18;2.70;99.90
8643;DHT22;4359;49.358;11.256;2024-03-29T01:14:45;2.70;99.90
8643;DHT22;4359;49.358;11.256;2024-03-29T01:17:11;2.80;99.90
8643;DHT22;4359;49.358;11.256;2024-03-29T01:19:36;2.90;99.90
8643;DHT22;4359;49.358;11.256;2024-03-29T01:22:03;3.00;99.90
8643;DHT22;4359;49.358;11.256;2024-03-29T01:24:29;3.00;99.90
8643;DHT22;4359;49.358;11.256;2024-03-29T01:26:55;3.00;99.90
8643;DHT22;4359;49.358;11.256;2024-03-29T01:29:20;3.00;99.90
8643;DHT22;4359;49.358;11.256;2024-03-29T01:31:46;3.00;99.90
8643;DHT22;4359;49.358;11.256;2024-03-29T01:34:12;3.10;99.90
8643;DHT22;4359;49.358;11.256;2024-03-29T01:36:38;3.30;99.90
8643;DHT22;4359;49.358;11.256;2024-03-29T01:39:03;3.50;99.90
8643;DHT22;4359;49.358;11.256;2024-03-29T01:41:29;3.60;99.90
8643;DHT22;4359;49.358;11.256;2024-03-29T01:43:55;3.70;99.90
8643;DHT22;4359;49.358;11.256;2024-03-29T01:46:23;3.70;99.90
8643;DHT22;4359;49.358;11.256;2024-03-29T01:48:53;3.60;99.90
8643;DHT22;4359;49.358;11.256;2024-03-29T01:51:21;3.80;99.90
8643;DHT22;4359;49.358;11.256;2024-03-29T01:53:52;4.00;99.90
8643;DHT22;4359;49.358;11.256;2024-03-29T01:56:21;4.20;99.90
8643;DHT22;4359;49.358;11.256;2024-03-29T01:58:49;4.40;99.90
8643;DHT22;4359;49.358;11.256;2024-03-29T02:01:16;4.50;99.90
8643;DHT22;4359;49.358;11.256;2024-03-29T02:03:42;4.70;99.90
8643;DHT22;4359;49.358;11.256;2024-03-29T02:06:08;4.80;99.90
8643;DHT22;4359;49.358;11.256;2024-03-29T02:08:37;4.90;99.90
8643;DHT22;4359;49.358;11.256;2024-03-29T02:11:02;5.00;99.90
8643;DHT22;4359;49.358;11.256;2024-03-29T02:13:29;5.10;99.90
8643;DHT22;4359;49.358;11.256;2024-03-29T02:15:54;5.20;99.90
8643;DHT22;4359;49.358;11.256;2024-03-29T02:18:20;5.40;99.90
8643;DHT22;4359;49.358;11.256;2024-03-29T02:20:46;5.40;99.90
8643;DHT22;4359;49.358;11.256;2024-03-29T02:23:16;5.40;99.90
8643;DHT22;4359;49.358;11.256;2024-03-29T02:25:43;5.40;99.90
8643;DHT22;4359;49.358;11.256;2024-03-29T02:28:09;5.50;99.90
8643;DHT22;4359;49.358;11.256;2024-03-29T02:30:34;5.40;99.90
8643;DHT22;4359;49.358;11.256;2024-03-29T02:33:00;5.40;99.90
8643;DHT22;4359;49.358;11.256;2024-03-29T02:35:26;5.50;99.90
8643;DHT22;4359;49.358;11.256;2024-03-29T02:37:52;5.60;99.90
8643;DHT22;4359;49.358;11.256;2024-03-29T02:40:18;5.60;99.90
8643;DHT22;4359;49.358;11.256;2024-03-29T02:42:45;5.70;99.90
8643;DHT22;4359;49.358;11.256;2024-03-29T02:45:10;5.80;99.90
8643;DHT22;4359;49.358;11.256;2024-03-29T02:47:36;5.90;99.90
8643;DHT22;4359;49.358;11.256;2024-03-29T02:50:01;5.80;99.90
8643;DHT22;4359;49.358;11.256;2024-03-29T02:52:27;5.90;99.90
8643;DHT22;4359;49.358;11.256;2024-03-29T02:54:54;5.90;99.90
8643;DHT22;4359;49.358;11.256;2024-03-29T02:57:20;5.90;99.90
8643;DHT22;4359;49.358;11.256;2024-03-29T02:59:45;5.90;99.90
8643;DHT22;4359;49.358;11.256;2024-03-29T03:02:11;5.90;99.90
8643;DHT22;4359;49.358;11.256;2024-03-29T03:04:36;5.90;99.90
8643;DHT22;4359;49.358;11.256;2024-03-29T03:07:02;5.90;99.90
8643;DHT22;4359;49.358;11.256;2024-03-29T03:09:46;5.90;99.90
8643;DHT22;4359;49.358;11.256;2024-03-29T03:12:31;5.90;99.90
8643;DHT22;4359;49.358;11.256;2024-03-29T03:14:57;6.00;99.90
8643;DHT22;4359;49.358;11.256;2024-03-29T03:17:24;6.00;99.90
8643;DHT22;4359;49.358;11.256;2024-03-29T03:19:53;6.00;99.90
8643;DHT22;4359;49.358;11.256;2024-03-29T03:22:19;6.00;99.90
8643;DHT22;4359;49.358;11.256;2024-03-29T03:24:45;6.00;99.90
8643;DHT22;4359;49.358;11.256;2024-03-29T03:27:11;6.00;99.90
8643;DHT22;4359;49.358;11.256;2024-03-29T03:29:36;6.10;99.90
8643;DHT22;4359;49.358;11.256;2024-03-29T03:32:03;6.00;99.90
8643;DHT22;4359;49.358;11.256;2024-03-29T03:34:29;6.00;99.90
8643;DHT22;4359;49.358;11.256;2024-03-29T03:36:54;6.00;99.90
8643;DHT22;4359;49.358;11.256;2024-03-29T03:39:20;6.10;99.90
8643;DHT22;4359;49.358;11.256;2024-03-29T03:41:45;6.10;99.90
8643;DHT22;4359;49.358;11.256;2024-03-29T03:44:12;6.10;99.90
8643;DHT22;4359;49.358;11.256;2024-03-29T03:46:37;6.10;99.90
8643;DHT22;4359;49.358;11.256;2024-03-29T03:49:03;6.10;99.90
8643;DHT22;4359;49.358;11.256;2024-03-29T03:51:29;6.10;99.90
8643;DHT22;4359;49.358;11.256;2024-03-29T03:53:54;6.10;99.90
8643;DHT22;4359;49.358;11.256;2024-03-29T03:56:20;6.00;99.90
8643;DHT22;4359;49.358;11.256;2024-03-29T03:58:46;6.10;99.90
8643;DHT22;4359;49.358;11.256;2024-03-29T04:01:11;6.10;99.90
8643;DHT22;4359;49.358;11.256;2024-03-29T04:03:37;6.10;99.90
8643;DHT22;4359;49.358;11.256;2024-03-29T04:06:05;6.10;99.90
8643;DHT22;4359;49.358;11.256;2024-03-29T04:08:31;6.10;99.90
8643;DHT22;4359;49.358;11.256;2024-03-29T04:10:57;6.10;99.90
8643;DHT22;4359;49.358;11.256;2024-03-29T04:13:23;6.10;99.90
8643;DHT22;4359;49.358;11.256;2024-03-29T04:15:48;6.10;99.90
8643;DHT22;4359;49.358;11.256;2024-03-29T04:18:14;6.10;99.90
8643;DHT22;4359;49.358;11.256;2024-03-29T04:20:39;6.10;99.90
8643;DHT22;4359;49.358;11.256;2024-03-29T04:23:05;6.10;99.90
8643;DHT22;4359;49.358;11.256;2024-03-29T04:25:31;6.00;99.90
8643;DHT22;4359;49.358;11.256;2024-03-29T04:27:56;6.00;99.90
8643;DHT22;4359;49.358;11.256;2024-03-29T04:30:22;6.00;99.90
8643;DHT22;4359;49.358;11.256;2024-03-29T04:32:48;6.10;99.90
8643;DHT22;4359;49.358;11.256;2024-03-29T04:35:13;6.00;99.90
8643;DHT22;4359;49.358;11.256;2024-03-29T04:37:39;6.00;99.90
8643;DHT22;4359;49.358;11.256;2024-03-29T04:40:05;6.00;99.90
8643;DHT22;4359;49.358;11.256;2024-03-29T04:42:31;6.00;99.90
8643;DHT22;4359;49.358;11.256;2024-03-29T04:44:57;6.00;99.90
8643;DHT22;4359;49.358;11.256;2024-03-29T04:47:23;6.00;99.90
8643;DHT22;4359;49.358;11.256;2024-03-29T04:49:48;5.90;99.90
8643;DHT22;4359;49.358;11.256;2024-03-29T04:52:14;6.10;99.90
8643;DHT22;4359;49.358;11.256;2024-03-29T04:54:40;6.10;99.90
8643;DHT22;4359;49.358;11.256;2024-03-29T04:57:05;6.20;99.90
8643;DHT22;4359;49.358;11.256;2024-03-29T04:59:32;6.10;99.90
8643;DHT22;4359;49.358;11.256;2024-03-29T05:02:01;6.10;99.90
8643;DHT22;4359;49.358;11.256;2024-03-29T05:04:27;6.20;99.90
8643;DHT22;4359;49.358;11.256;2024-03-29T05:06:54;6.10;99.90
8643;DHT22;4359;49.358;11.256;2024-03-29T05:09:20;6.10;99.90
8643;DHT22;4359;49.358;11.256;2024-03-29T05:11:47;6.20;99.90
8643;DHT22;4359;49.358;11.256;2024-03-29T05:14:15;6.30;99.90
8643;DHT22;4359;49.358;11.256;2024-03-29T05:16:45;6.30;99.90
8643;DHT22;4359;49.358;11.256;2024-03-29T05:19:11;6.40;99.90
8643;DHT22;4359;49.358;11.256;2024-03-29T05:21:37;6.40;99.90
8643;DHT22;4359;49.358;11.256;2024-03-29T05:24:03;6.40;99.90
8643;DHT22;4359;49.358;11.256;2024-03-29T05:26:28;6.50;99.90
8643;DHT22;4359;49.358;11.256;2024-03-29T05:28:54;6.50;99.90
8643;DHT22;4359;49.358;11.256;2024-03-29T05:31:23;6.40;99.90
8643;DHT22;4359;49.358;11.256;2024-03-29T05:33:50;6.40;99.90
8643;DHT22;4359;49.358;11.256;2024-03-29T05:36:15;6.50;99.90
8643;DHT22;4359;49.358;11.256;2024-03-29T05:38:41;6.40;99.90
8643;DHT22;4359;49.358;11.256;2024-03-29T05:41:07;6.40;99.90
8643;DHT22;4359;49.358;11.256;2024-03-29T05:43:32;6.40;99.90
8643;DHT22;4359;49.358;11.256;2024-03-29T05:45:58;6.50;99.90
8643;DHT22;4359;49.358;11.256;2024-03-29T05:48:27;6.40;99.90
8643;DHT22;4359;49.358;11.256;2024-03-29T05:50:52;6.50;99.90
8643;DHT22;4359;49.358;11.256;2024-03-29T05:53:18;6.50;99.90
8643;DHT22;4359;49.358;11.256;2024-03-29T05:55:44;6.60;99.90
8643;DHT22;4359;49.358;11.256;2024-03-29T05:58:10;6.60;99.90
8643;DHT22;4359;49.358;11.256;2024-03-29T06:00:35;6.60;99.90
8643;DHT22;4359;49.358;11.256;2024-03-29T06:03:02;6.70;99.90
8643;DHT22;4359;49.358;11.256;2024-03-29T06:05:30;6.70;99.90
8643;DHT22;4359;49.358;11.256;2024-03-29T06:07:56;6.70;99.90
8643;DHT22;4359;49.358;11.256;2024-03-29T06:10:22;6.80;99.90
8643;DHT22;4359;49.358;11.256;2024-03-29T06:12:48;6.80;99.90
8643;DHT22;4359;49.358;11.256;2024-03-29T06:15:13;6.90;99.90
8643;DHT22;4359;49.358;11.256;2024-03-29T06:17:58;6.90;99.90
8643;DHT22;4359;49.358;11.256;2024-03-29T06:20:24;6.80;99.90
8643;DHT22;4359;49.358;11.256;2024-03-29T06:22:49;7.00;99.90
8643;DHT22;4359;49.358;11.256;2024-03-29T06:25:16;7.30;99.90
8643;DHT22;4359;49.358;11.256;2024-03-29T06:27:42;7.20;99.90
8643;DHT22;4359;49.358;11.256;2024-03-29T06:30:14;7.40;99.90
8643;DHT22;4359;49.358;11.256;2024-03-29T06:32:40;7.40;99.90
8643;DHT22;4359;49.358;11.256;2024-03-29T06:35:06;7.50;99.90
8643;DHT22;4359;49.358;11.256;2024-03-29T06:37:32;7.50;99.90
8643;DHT22;4359;49.358;11.256;2024-03-29T06:39:58;7.50;99.90
8643;DHT22;4359;49.358;11.256;2024-03-29T06:42:23;7.60;99.90
8643;DHT22;4359;49.358;11.256;2024-03-29T06:44:49;7.60;99.90
8643;DHT22;4359;49.358;11.256;2024-03-29T06:47:15;7.70;99.90
8643;DHT22;4359;49.358;11.256;2024-03-29T06:49:41;7.70;99.90
8643;DHT22;4359;49.358;11.256;2024-03-29T06:52:06;7.70;99.90
8643;DHT22;4359;49.358;11.256;2024-03-29T06:54:32;7.80;99.90
8643;DHT22;4359;49.358;11.256;2024-03-29T06:56:59;7.90;99.90
8643;DHT22;4359;49.358;11.256;2024-03-29T06:59:25;8.00;99.90
8643;DHT22;4359;49.358;11.256;2024-03-29T07:01:51;8.00;99.90
8643;DHT22;4359;49.358;11.256;2024-03-29T07:04:20;8.00;99.90
8643;DHT22;4359;49.358;11.256;2024-03-29T07:06:46;8.10;99.90
8643;DHT22;4359;49.358;11.256;2024-03-29T07:09:19;8.20;99.90
8643;DHT22;4359;49.358;11.256;2024-03-29T07:11:49;8.20;99.90
8643;DHT22;4359;49.358;11.256;2024-03-29T07:14:15;8.40;99.90
8643;DHT22;4359;49.358;11.256;2024-03-29T07:16:45;8.60;99.90
8643;DHT22;4359;49.358;11.256;2024-03-29T07:19:11;8.70;99.90
8643;DHT22;4359;49.358;11.256;2024-03-29T07:21:39;8.70;99.90
8643;DHT22;4359;49.358;11.256;2024-03-29T07:24:05;8.90;99.90
8643;DHT22;4359;49.358;11.256;2024-03-29T07:26:31;8.90;99.90
8643;DHT22;4359;49.358;11.256;2024-03-29T07:28:57;9.00;99.90
8643;DHT22;4359;49.358;11.256;2024-03-29T07:31:23;9.10;99.90
8643;DHT22;4359;49.358;11.256;2024-03-29T07:33:49;9.30;99.90
8643;DHT22;4359;49.358;11.256;2024-03-29T07:36:14;9.50;99.90
8643;DHT22;4359;49.358;11.256;2024-03-29T07:38:42;9.90;99.90
8643;DHT22;4359;49.358;11.256;2024-03-29T07:41:08;10.40;99.90
8643;DHT22;4359;49.358;11.256;2024-03-29T07:43:51;10.60;99.90
8643;DHT22;4359;49.358;11.256;2024-03-29T07:46:17;10.70;99.90
8643;DHT22;4359;49.358;11.256;2024-03-29T07:48:43;10.70;99.90
8643;DHT22;4359;49.358;11.256;2024-03-29T07:51:09;10.60;99.90
8643;DHT22;4359;49.358;11.256;2024-03-29T07:53:34;10.40;99.90
8643;DHT22;4359;49.358;11.256;2024-03-29T07:56:00;10.50;99.90
8643;DHT22;4359;49.358;11.256;2024-03-29T07:58:26;10.60;99.90
8643;DHT22;4359;49.358;11.256;2024-03-29T08:00:52;10.70;99.90
8643;DHT22;4359;49.358;11.256;2024-03-29T08:03:19;10.90;99.90
8643;DHT22;4359;49.358;11.256;2024-03-29T08:05:58;11.00;99.90
8643;DHT22;4359;49.358;11.256;2024-03-29T08:08:24;11.40;99.90
8643;DHT22;4359;49.358;11.256;2024-03-29T08:10:55;11.70;99.90
8643;DHT22;4359;49.358;11.256;2024-03-29T08:13:21;11.90;99.90
8643;DHT22;4359;49.358;11.256;2024-03-29T08:15:48;12.00;99.90
8643;DHT22;4359;49.358;11.256;2024-03-29T08:18:14;11.70;99.90
8643;DHT22;4359;49.358;11.256;2024-03-29T08:20:39;11.90;99.90
8643;DHT22;4359;49.358;11.256;2024-03-29T08:23:05;12.10;99.90
8643;DHT22;4359;49.358;11.256;2024-03-29T08:25:31;12.40;99.90
8643;DHT22;4359;49.358;11.256;2024-03-29T08:27:57;12.20;99.90
8643;DHT22;4359;49.358;11.256;2024-03-29T08:30:26;12.40;99.90
8643;DHT22;4359;49.358;11.256;2024-03-29T08:32:52;12.60;99.90
8643;DHT22;4359;49.358;11.256;2024-03-29T08:35:22;12.70;99.90
8643;DHT22;4359;49.358;11.256;2024-03-29T08:37:48;12.50;99.90
8643;DHT22;4359;49.358;11.256;2024-03-29T08:40:15;12.50;99.90
8643;DHT22;4359;49.358;11.256;2024-03-29T08:42:41;12.40;99.90
8643;DHT22;4359;49.358;11.256;2024-03-29T08:45:07;12.20;99.90
8643;DHT22;4359;49.358;11.256;2024-03-29T08:47:34;12.10;99.90
8643;DHT22;4359;49.358;11.256;2024-03-29T08:49:59;12.00;99.90
8643;DHT22;4359;49.358;11.256;2024-03-29T08:52:25;11.90;99.90
8643;DHT22;4359;49.358;11.256;2024-03-29T08:54:51;11.90;99.90
8643;DHT22;4359;49.358;11.256;2024-03-29T08:57:17;11.70;99.90
8643;DHT22;4359;49.358;11.256;2024-03-29T08:59:43;11.40;99.90
8643;DHT22;4359;49.358;11.256;2024-03-29T09:02:09;11.20;99.90
8643;DHT22;4359;49.358;11.256;2024-03-29T09:04:34;10.90;99.90
8643;DHT22;4359;49.358;11.256;2024-03-29T09:07:01;10.60;99.90
8643;DHT22;4359;49.358;11.256;2024-03-29T09:09:32;10.40;99.90
8643;DHT22;4359;49.358;11.256;2024-03-29T09:11:58;10.30;99.90
8643;DHT22;4359;49.358;11.256;2024-03-29T09:14:24;10.10;99.90
8643;DHT22;4359;49.358;11.256;2024-03-29T09:16:51;10.00;99.90
8643;DHT22;4359;49.358;11.256;2024-03-29T09:19:16;9.80;99.90
8643;DHT22;4359;49.358;11.256;2024-03-29T09:21:42;9.60;99.90
8643;DHT22;4359;49.358;11.256;2024-03-29T09:24:08;9.50;99.90
8643;DHT22;4359;49.358;11.256;2024-03-29T09:26:34;9.30;99.90
8643;DHT22;4359;49.358;11.256;2024-03-29T09:29:00;9.00;99.90
8643;DHT22;4359;49.358;11.256;2024-03-29T09:31:27;8.90;99.90
8643;DHT22;4359;49.358;11.256;2024-03-29T09:33:52;8.90;99.90
8643;DHT22;4359;49.358;11.256;2024-03-29T09:36:22;8.80;99.90
8643;DHT22;4359;49.358;11.256;2024-03-29T09:38:49;8.90;99.90
8643;DHT22;4359;49.358;11.256;2024-03-29T09:41:16;9.10;99.90
8643;DHT22;4359;49.358;11.256;2024-03-29T09:43:43;9.30;99.90
8643;DHT22;4359;49.358;11.256;2024-03-29T09:46:16;9.60;99.90
8643;DHT22;4359;49.358;11.256;2024-03-29T09:48:44;9.70;99.90
8643;DHT22;4359;49.358;11.256;2024-03-29T09:51:13;9.80;99.90
8643;DHT22;4359;49.358;11.256;2024-03-29T09:53:41;10.00;99.90
8643;DHT22;4359;49.358;11.256;2024-03-29T09:56:08;10.10;99.90
8643;DHT22;4359;49.358;11.256;2024-03-29T09:58:37;10.10;99.90
8643;DHT22;4359;49.358;11.256;2024-03-29T10:01:05;9.90;99.90
8643;DHT22;4359;49.358;11.256;2024-03-29T10:03:32;9.90;99.90
8643;DHT22;4359;49.358;11.256;2024-03-29T10:06:00;9.90;99.90
8643;DHT22;4359;49.358;11.256;2024-03-29T10:08:26;9.90;99.90
8643;DHT22;4359;49.358;11.256;2024-03-29T10:10:54;9.80;99.90
8643;DHT22;4359;49.358;11.256;2024-03-29T10:13:19;9.90;99.90
8643;DHT22;4359;49.358;11.256;2024-03-29T10:15:46;9.80;99.90
8643;DHT22;4359;49.358;11.256;2024-03-29T10:18:15;9.80;99.90
8643;DHT22;4359;49.358;11.256;2024-03-29T10:20:41;9.80;99.90
8643;DHT22;4359;49.358;11.256;2024-03-29T10:23:07;10.10;99.90
8643;DHT22;4359;49.358;11.256;2024-03-29T10:25:33;10.30;99.90
8643;DHT22;4359;49.358;11.256;2024-03-29T10:28:00;10.50;99.90
8643;DHT22;4359;49.358;11.256;2024-03-29T10:30:28;10.50;99.90
8643;DHT22;4359;49.358;11.256;2024-03-29T10:32:57;10.60;99.90
8643;DHT22;4359;49.358;11.256;2024-03-29T10:35:25;10.60;99.90
8643;DHT22;4359;49.358;11.256;2024-03-29T10:37:54;10.80;99.90
8643;DHT22;4359;49.358;11.256;2024-03-29T10:40:21;10.80;99.90
8643;DHT22;4359;49.358;11.256;2024-03-29T10:42:48;10.70;99.90
8643;DHT22;4359;49.358;11.256;2024-03-29T10:45:17;10.80;99.90
8643;DHT22;4359;49.358;11.256;2024-03-29T10:47:43;11.00;99.90
8643;DHT22;4359;49.358;11.256;2024-03-29T10:50:12;11.20;99.90
8643;DHT22;4359;49.358;11.256;2024-03-29T10:52:39;11.50;99.90
8643;DHT22;4359;49.358;11.256;2024-03-29T10:55:09;11.70;99.90
8643;DHT22;4359;49.358;11.256;2024-03-29T10:57:35;11.90;99.90
8643;DHT22;4359;49.358;11.256;2024-03-29T11:00:12;12.10;99.90
8643;DHT22;4359;49.358;11.256;2024-03-29T11:05:18;11.90;99.90
8643;DHT22;4359;49.358;11.256;2024-03-29T11:07:45;11.90;99.90
8643;DHT22;4359;49.358;11.256;2024-03-29T11:15:29;11.60;99.90
8643;DHT22;4359;49.358;11.256;2024-03-29T11:17:55;11.60;99.90
8643;DHT22;4359;49.358;11.256;2024-03-29T11:20:26;11.50;99.90
8643;DHT22;4359;49.358;11.256;2024-03-29T11:23:05;11.40;99.90
8643;DHT22;4359;49.358;11.256;2024-03-29T11:25:45;11.20;99.90
8643;DHT22;4359;49.358;11.256;2024-03-29T11:28:30;11.20;99.90
8643;DHT22;4359;49.358;11.256;2024-03-29T11:31:02;11.10;99.90
8643;DHT22;4359;49.358;11.256;2024-03-29T11:33:44;11.10;99.90
8643;DHT22;4359;49.358;11.256;2024-03-29T11:36:13;11.10;99.90
8643;DHT22;4359;49.358;11.256;2024-03-29T11:38:42;11.10;99.90
8643;DHT22;4359;49.358;11.256;2024-03-29T11:41:17;11.20;99.90
8643;DHT22;4359;49.358;11.256;2024-03-29T11:43:44;11.30;99.90
8643;DHT22;4359;49.358;11.256;2024-03-29T11:46:14;11.20;99.90
8643;DHT22;4359;49.358;11.256;2024-03-29T11:48:41;11.30;99.90
8643;DHT22;4359;49.358;11.256;2024-03-29T11:51:08;11.40;99.90
8643;DHT22;4359;49.358;11.256;2024-03-29T11:53:35;11.70;99.90
8643;DHT22;4359;49.358;11.256;2024-03-29T11:56:02;12.20;99.90
8643;DHT22;4359;49.358;11.256;2024-03-29T11:58:29;12.70;99.90
8643;DHT22;4359;49.358;11.256;2024-03-29T12:00:56;13.10;99.90
8643;DHT22;4359;49.358;11.256;2024-03-29T12:03:27;13.30;99.90
8643;DHT22;4359;49.358;11.256;2024-03-29T12:05:55;13.50;99.90
8643;DHT22;4359;49.358;11.256;2024-03-29T12:08:24;13.70;99.90
8643;DHT22;4359;49.358;11.256;2024-03-29T12:10:50;13.50;99.90
8643;DHT22;4359;49.358;11.256;2024-03-29T12:13:17;13.20;99.90
8643;DHT22;4359;49.358;11.256;2024-03-29T12:15:43;13.10;99.90
8643;DHT22;4359;49.358;11.256;2024-03-29T12:18:09;13.10;99.90
8643;DHT22;4359;49.358;11.256;2024-03-29T12:20:37;13.10;99.90
8643;DHT22;4359;49.358;11.256;2024-03-29T12:23:07;13.20;99.90
8643;DHT22;4359;49.358;11.256;2024-03-29T12:25:36;13.50;99.90
8643;DHT22;4359;49.358;11.256;2024-03-29T12:28:02;13.90;99.90
8643;DHT22;4359;49.358;11.256;2024-03-29T12:30:28;14.30;99.90
8643;DHT22;4359;49.358;11.256;2024-03-29T12:33:13;14.70;99.90
8643;DHT22;4359;49.358;11.256;2024-03-29T12:35:41;15.00;99.90
8643;DHT22;4359;49.358;11.256;2024-03-29T12:38:13;15.40;99.90
8643;DHT22;4359;49.358;11.256;2024-03-29T12:40:41;15.70;99.90
8643;DHT22;4359;49.358;11.256;2024-03-29T12:43:08;15.90;99.90
8643;DHT22;4359;49.358;11.256;2024-03-29T12:45:35;15.50;99.90
8643;DHT22;4359;49.358;11.256;2024-03-29T12:48:14;15.40;99.90
8643;DHT22;4359;49.358;11.256;2024-03-29T12:50:41;15.60;99.90
8643;DHT22;4359;49.358;11.256;2024-03-29T12:53:08;15.50;99.90
8643;DHT22;4359;49.358;11.256;2024-03-29T12:55:34;15.30;99.90
8643;DHT22;4359;49.358;11.256;2024-03-29T12:58:02;15.30;99.90
8643;DHT22;4359;49.358;11.256;2024-03-29T13:00:33;15.40;99.90
8643;DHT22;4359;49.358;11.256;2024-03-29T13:02:59;15.70;99.90
8643;DHT22;4359;49.358;11.256;2024-03-29T13:05:24;15.80;99.90
8643;DHT22;4359;49.358;11.256;2024-03-29T13:07:50;15.80;99.90
8643;DHT22;4359;49.358;11.256;2024-03-29T13:10:16;15.90;99.90
8643;DHT22;4359;49.358;11.256;2024-03-29T13:12:47;15.90;99.90
8643;DHT22;4359;49.358;11.256;2024-03-29T13:15:19;16.10;99.90
8643;DHT22;4359;49.358;11.256;2024-03-29T13:17:46;16.20;99.90
8643;DHT22;4359;49.358;11.256;2024-03-29T13:20:13;16.20;99.90
8643;DHT22;4359;49.358;11.256;2024-03-29T13:22:41;16.30;99.90
8643;DHT22;4359;49.358;11.256;2024-03-29T13:25:08;16.20;99.90
8643;DHT22;4359;49.358;11.256;2024-03-29T13:27:40;16.20;99.90
8643;DHT22;4359;49.358;11.256;2024-03-29T13:30:07;16.20;99.90
8643;DHT22;4359;49.358;11.256;2024-03-29T13:32:34;16.40;99.90
8643;DHT22;4359;49.358;11.256;2024-03-29T13:35:00;16.50;99.90
8643;DHT22;4359;49.358;11.256;2024-03-29T13:37:27;16.70;99.90
8643;DHT22;4359;49.358;11.256;2024-03-29T13:39:54;16.70;99.90
8643;DHT22;4359;49.358;11.256;2024-03-29T13:42:20;16.90;99.90
8643;DHT22;4359;49.358;11.256;2024-03-29T13:44:49;17.10;99.90
8643;DHT22;4359;49.358;11.256;2024-03-29T13:47:15;17.50;99.90
8643;DHT22;4359;49.358;11.256;2024-03-29T13:49:42;17.70;99.90
8643;DHT22;4359;49.358;11.256;2024-03-29T13:52:08;17.90;99.90
8643;DHT22;4359;49.358;11.256;2024-03-29T13:54:34;18.00;99.90
8643;DHT22;4359;49.358;11.256;2024-03-29T13:57:00;18.10;99.90
8643;DHT22;4359;49.358;11.256;2024-03-29T13:59:27;17.90;99.90
8643;DHT22;4359;49.358;11.256;2024-03-29T14:01:53;17.70;99.90
8643;DHT22;4359;49.358;11.256;2024-03-29T14:04:18;17.70;99.90
8643;DHT22;4359;49.358;11.256;2024-03-29T14:06:44;17.90;99.90
8643;DHT22;4359;49.358;11.256;2024-03-29T14:09:09;18.30;99.90
8643;DHT22;4359;49.358;11.256;2024-03-29T14:11:35;18.60;99.90
8643;DHT22;4359;49.358;11.256;2024-03-29T14:14:01;18.60;99.90
8643;DHT22;4359;49.358;11.256;2024-03-29T14:16:26;18.40;99.90
8643;DHT22;4359;49.358;11.256;2024-03-29T14:18:52;18.30;99.90
8643;DHT22;4359;49.358;11.256;2024-03-29T14:21:17;18.30;99.90
8643;DHT22;4359;49.358;11.256;2024-03-29T14:23:43;18.00;99.90
8643;DHT22;4359;49.358;11.256;2024-03-29T14:26:09;17.80;99.90
8643;DHT22;4359;49.358;11.256;2024-03-29T14:28:35;17.70;99.90
8643;DHT22;4359;49.358;11.256;2024-03-29T14:31:01;17.60;99.90
8643;DHT22;4359;49.358;11.256;2024-03-29T14:33:26;17.50;99.90
8643;DHT22;4359;49.358;11.256;2024-03-29T14:35:52;17.80;99.90
8643;DHT22;4359;49.358;11.256;2024-03-29T14:38:19;18.00;99.90
8643;DHT22;4359;49.358;11.256;2024-03-29T14:40:46;18.20;99.90
8643;DHT22;4359;49.358;11.256;2024-03-29T14:43:11;18.30;99.90
8643;DHT22;4359;49.358;11.256;2024-03-29T14:45:40;18.00;99.90
8643;DHT22;4359;49.358;11.256;2024-03-29T14:48:06;17.70;99.90
8643;DHT22;4359;49.358;11.256;2024-03-29T14:50:32;17.40;99.90
8643;DHT22;4359;49.358;11.256;2024-03-29T14:52:57;17.40;99.90
8643;DHT22;4359;49.358;11.256;2024-03-29T14:55:23;17.20;99.90
8643;DHT22;4359;49.358;11.256;2024-03-29T14:57:49;17.20;99.90
8643;DHT22;4359;49.358;11.256;2024-03-29T15:00:15;17.00;99.90
8643;DHT22;4359;49.358;11.256;2024-03-29T15:02:41;16.90;99.90
8643;DHT22;4359;49.358;11.256;2024-03-29T15:05:08;16.80;99.90
8643;DHT22;4359;49.358;11.256;2024-03-29T15:07:37;16.70;99.90
8643;DHT22;4359;49.358;11.256;2024-03-29T15:10:02;16.70;99.90
8643;DHT22;4359;49.358;11.256;2024-03-29T15:12:38;16.80;99.90
8643;DHT22;4359;49.358;11.256;2024-03-29T15:15:05;16.80;99.90
8643;DHT22;4359;49.358;11.256;2024-03-29T15:17:31;16.70;99.90
8643;DHT22;4359;49.358;11.256;2024-03-29T15:19:57;16.60;99.90
8643;DHT22;4359;49.358;11.256;2024-03-29T15:22:22;16.60;99.90
8643;DHT22;4359;49.358;11.256;2024-03-29T15:24:49;16.60;99.90
8643;DHT22;4359;49.358;11.256;2024-03-29T15:27:14;16.60;99.90
8643;DHT22;4359;49.358;11.256;2024-03-29T15:30:15;16.60;99.90
8643;DHT22;4359;49.358;11.256;2024-03-29T15:32:41;16.60;99.90
8643;DHT22;4359;49.358;11.256;2024-03-29T15:35:08;16.70;99.90
8643;DHT22;4359;49.358;11.256;2024-03-29T15:37:34;16.70;99.90
8643;DHT22;4359;49.358;11.256;2024-03-29T15:40:01;16.70;99.90
8643;DHT22;4359;49.358;11.256;2024-03-29T15:42:27;16.70;99.90
8643;DHT22;4359;49.358;11.256;2024-03-29T15:44:52;16.70;99.90
8643;DHT22;4359;49.358;11.256;2024-03-29T15:47:18;16.60;99.90
8643;DHT22;4359;49.358;11.256;2024-03-29T15:49:44;16.60;99.90
8643;DHT22;4359;49.358;11.256;2024-03-29T15:52:09;16.50;99.90
8643;DHT22;4359;49.358;11.256;2024-03-29T15:54:35;16.50;99.90
8643;DHT22;4359;49.358;11.256;2024-03-29T15:57:01;16.40;99.90
8643;DHT22;4359;49.358;11.256;2024-03-29T15:59:27;16.40;99.90
8643;DHT22;4359;49.358;11.256;2024-03-29T16:01:53;16.30;99.90